sensor_id;sensor_type;location;lat;lon;timestamp;P1;durP1;ratioP1;P2;durP2;ratioP2
6864;SDS011;3471;49.678;8.388;2023-02-22T00:00:39;17.50;;;10.00;;
6864;SDS011;3471;49.678;8.388;2023-02-22T00:03:12;20.60;;;9.88;;
6864;SDS011;3471;49.678;8.388;2023-02-22T00:05:48;13.23;;;11.25;;
6864;SDS011;3471;49.678;8.388;2023-02-22T00:08:18;20.60;;;11.25;;
6864;SDS011;3471;49.678;8.388;2023-02-22T00:10:45;19.83;;;9.85;;
6864;SDS011;3471;49.678;8.388;2023-02-22T00:13:11;16.60;;;12.37;;
6864;SDS011;3471;49.678;8.388;2023-02-22T00:15:38;23.25;;;10.50;;
6864;SDS011;3471;49.678;8.388;2023-02-22T00:18:08;20.20;;;11.90;;
6864;SDS011;3471;49.678;8.388;2023-02-22T00:20:36;16.40;;;12.50;;
6864;SDS011;3471;49.678;8.388;2023-02-22T00:23:03;13.40;;;11.15;;
6864;SDS011;3471;49.678;8.388;2023-02-22T00:25:31;15.07;;;11.57;;
6864;SDS011;3471;49.678;8.388;2023-02-22T00:27:57;15.27;;;11.52;;
6864;SDS011;3471;49.678;8.388;2023-02-22T00:30:25;30.38;;;11.07;;
6864;SDS011;3471;49.678;8.388;2023-02-22T00:32:53;16.45;;;13.23;;
6864;SDS011;3471;49.678;8.388;2023-02-22T00:35:20;13.98;;;10.35;;
6864;SDS011;3471;49.678;8.388;2023-02-22T00:37:48;18.33;;;12.55;;
6864;SDS011;3471;49.678;8.388;2023-02-22T00:40:17;18.27;;;10.90;;
6864;SDS011;3471;49.678;8.388;2023-02-22T00:42:45;21.08;;;12.27;;
6864;SDS011;3471;49.678;8.388;2023-02-22T00:45:11;16.70;;;10.93;;
6864;SDS011;3471;49.678;8.388;2023-02-22T00:47:39;20.00;;;10.68;;
6864;SDS011;3471;49.678;8.388;2023-02-22T00:50:04;13.52;;;10.32;;
6864;SDS011;3471;49.678;8.388;2023-02-22T00:52:30;16.87;;;11.20;;
6864;SDS011;3471;49.678;8.388;2023-02-22T00:54:56;13.85;;;10.73;;
6864;SDS011;3471;49.678;8.388;2023-02-22T00:57:22;23.60;;;12.50;;
6864;SDS011;3471;49.678;8.388;2023-02-22T00:59:48;13.23;;;10.57;;
6864;SDS011;3471;49.678;8.388;2023-02-22T01:02:14;16.83;;;11.13;;
6864;SDS011;3471;49.678;8.388;2023-02-22T01:04:40;17.77;;;14.17;;
6864;SDS011;3471;49.678;8.388;2023-02-22T01:07:06;14.25;;;9.50;;
6864;SDS011;3471;49.678;8.388;2023-02-22T01:09:31;25.33;;;11.90;;
6864;SDS011;3471;49.678;8.388;2023-02-22T01:11:57;13.57;;;11.48;;
6864;SDS011;3471;49.678;8.388;2023-02-22T01:14:23;17.73;;;11.20;;
6864;SDS011;3471;49.678;8.388;2023-02-22T01:16:50;19.40;;;10.70;;
6864;SDS011;3471;49.678;8.388;2023-02-22T01:19:18;18.70;;;10.80;;
6864;SDS011;3471;49.678;8.388;2023-02-22T01:21:44;12.73;;;10.52;;
6864;SDS011;3471;49.678;8.388;2023-02-22T01:24:11;15.25;;;10.85;;
6864;SDS011;3471;49.678;8.388;2023-02-22T01:26:40;10.75;;;9.30;;
6864;SDS011;3471;49.678;8.388;2023-02-22T01:29:13;18.50;;;12.57;;
6864;SDS011;3471;49.678;8.388;2023-02-22T01:31:40;15.02;;;11.02;;
6864;SDS011;3471;49.678;8.388;2023-02-22T01:34:09;24.42;;;11.35;;
6864;SDS011;3471;49.678;8.388;2023-02-22T01:36:36;18.40;;;13.02;;
6864;SDS011;3471;49.678;8.388;2023-02-22T01:39:04;13.57;;;11.95;;
6864;SDS011;3471;49.678;8.388;2023-02-22T01:41:30;17.25;;;10.60;;
6864;SDS011;3471;49.678;8.388;2023-02-22T01:43:56;14.30;;;10.75;;
6864;SDS011;3471;49.678;8.388;2023-02-22T01:46:22;18.40;;;11.27;;
6864;SDS011;3471;49.678;8.388;2023-02-22T01:48:51;11.98;;;10.07;;
6864;SDS011;3471;49.678;8.388;2023-02-22T01:51:22;16.33;;;11.27;;
6864;SDS011;3471;49.678;8.388;2023-02-22T01:53:54;21.75;;;13.52;;
6864;SDS011;3471;49.678;8.388;2023-02-22T01:56:24;18.50;;;11.60;;
6864;SDS011;3471;49.678;8.388;2023-02-22T01:58:53;16.52;;;10.23;;
6864;SDS011;3471;49.678;8.388;2023-02-22T02:01:24;15.68;;;10.00;;
6864;SDS011;3471;49.678;8.388;2023-02-22T02:03:51;14.05;;;11.15;;
6864;SDS011;3471;49.678;8.388;2023-02-22T02:06:22;13.30;;;10.40;;
6864;SDS011;3471;49.678;8.388;2023-02-22T02:08:51;18.23;;;12.88;;
6864;SDS011;3471;49.678;8.388;2023-02-22T02:11:54;14.95;;;10.40;;
6864;SDS011;3471;49.678;8.388;2023-02-22T02:14:24;22.20;;;10.70;;
6864;SDS011;3471;49.678;8.388;2023-02-22T02:16:51;16.70;;;10.98;;
6864;SDS011;3471;49.678;8.388;2023-02-22T02:19:37;20.20;;;12.85;;
6864;SDS011;3471;49.678;8.388;2023-02-22T02:25:25;14.23;;;11.80;;
6864;SDS011;3471;49.678;8.388;2023-02-22T02:38:49;18.48;;;12.15;;
6864;SDS011;3471;49.678;8.388;2023-02-22T02:41:23;18.33;;;10.88;;
6864;SDS011;3471;49.678;8.388;2023-02-22T02:44:01;14.55;;;10.05;;
6864;SDS011;3471;49.678;8.388;2023-02-22T02:49:45;12.80;;;10.77;;
6864;SDS011;3471;49.678;8.388;2023-02-22T02:52:20;18.33;;;11.57;;
6864;SDS011;3471;49.678;8.388;2023-02-22T02:54:49;17.95;;;12.90;;
6864;SDS011;3471;49.678;8.388;2023-02-22T02:57:16;20.83;;;10.48;;
6864;SDS011;3471;49.678;8.388;2023-02-22T02:59:41;14.82;;;11.68;;
6864;SDS011;3471;49.678;8.388;2023-02-22T03:08:27;11.63;;;9.23;;
6864;SDS011;3471;49.678;8.388;2023-02-22T03:16:14;12.98;;;10.65;;
6864;SDS011;3471;49.678;8.388;2023-02-22T03:19:08;13.00;;;10.33;;
6864;SDS011;3471;49.678;8.388;2023-02-22T03:24:36;17.17;;;11.18;;
6864;SDS011;3471;49.678;8.388;2023-02-22T03:27:21;13.88;;;9.82;;
6864;SDS011;3471;49.678;8.388;2023-02-22T03:29:53;16.40;;;10.45;;
6864;SDS011;3471;49.678;8.388;2023-02-22T03:32:24;17.65;;;11.32;;
6864;SDS011;3471;49.678;8.388;2023-02-22T03:34:58;16.65;;;11.05;;
6864;SDS011;3471;49.678;8.388;2023-02-22T03:37:31;15.88;;;10.20;;
6864;SDS011;3471;49.678;8.388;2023-02-22T03:39:59;16.27;;;10.88;;
6864;SDS011;3471;49.678;8.388;2023-02-22T03:42:37;9.73;;;8.10;;
6864;SDS011;3471;49.678;8.388;2023-02-22T03:45:07;12.30;;;10.05;;
6864;SDS011;3471;49.678;8.388;2023-02-22T03:47:36;14.98;;;12.50;;
6864;SDS011;3471;49.678;8.388;2023-02-22T03:50:07;15.00;;;10.60;;
6864;SDS011;3471;49.678;8.388;2023-02-22T03:52:39;15.15;;;10.02;;
6864;SDS011;3471;49.678;8.388;2023-02-22T03:55:07;11.98;;;9.80;;
6864;SDS011;3471;49.678;8.388;2023-02-22T03:57:35;17.93;;;9.93;;
6864;SDS011;3471;49.678;8.388;2023-02-22T04:00:08;14.47;;;10.53;;
6864;SDS011;3471;49.678;8.388;2023-02-22T04:02:35;13.07;;;9.55;;
6864;SDS011;3471;49.678;8.388;2023-02-22T04:05:01;18.42;;;8.32;;
6864;SDS011;3471;49.678;8.388;2023-02-22T04:07:27;13.57;;;10.05;;
6864;SDS011;3471;49.678;8.388;2023-02-22T04:09:52;16.23;;;10.00;;
6864;SDS011;3471;49.678;8.388;2023-02-22T04:12:18;11.68;;;7.32;;
6864;SDS011;3471;49.678;8.388;2023-02-22T04:14:43;12.23;;;8.80;;
6864;SDS011;3471;49.678;8.388;2023-02-22T04:17:09;10.05;;;8.07;;
6864;SDS011;3471;49.678;8.388;2023-02-22T04:19:34;12.23;;;7.67;;
6864;SDS011;3471;49.678;8.388;2023-02-22T04:22:00;12.65;;;7.90;;
6864;SDS011;3471;49.678;8.388;2023-02-22T04:24:26;10.00;;;8.23;;
6864;SDS011;3471;49.678;8.388;2023-02-22T04:26:51;10.48;;;8.90;;
6864;SDS011;3471;49.678;8.388;2023-02-22T04:29:19;19.38;;;8.25;;
6864;SDS011;3471;49.678;8.388;2023-02-22T04:31:44;9.60;;;7.67;;
6864;SDS011;3471;49.678;8.388;2023-02-22T04:34:10;17.42;;;9.25;;
6864;SDS011;3471;49.678;8.388;2023-02-22T04:36:36;10.55;;;9.45;;
6864;SDS011;3471;49.678;8.388;2023-02-22T04:39:02;9.83;;;7.07;;
6864;SDS011;3471;49.678;8.388;2023-02-22T04:41:28;8.93;;;8.02;;
6864;SDS011;3471;49.678;8.388;2023-02-22T04:43:55;14.90;;;11.00;;
6864;SDS011;3471;49.678;8.388;2023-02-22T04:46:21;18.00;;;10.27;;
6864;SDS011;3471;49.678;8.388;2023-02-22T04:48:47;12.38;;;7.60;;
6864;SDS011;3471;49.678;8.388;2023-02-22T04:51:13;11.77;;;10.02;;
6864;SDS011;3471;49.678;8.388;2023-02-22T04:53:39;9.88;;;8.85;;
6864;SDS011;3471;49.678;8.388;2023-02-22T04:56:04;10.07;;;8.87;;
6864;SDS011;3471;49.678;8.388;2023-02-22T04:58:30;13.48;;;8.73;;
6864;SDS011;3471;49.678;8.388;2023-02-22T05:00:56;12.53;;;9.27;;
6864;SDS011;3471;49.678;8.388;2023-02-22T05:03:21;9.45;;;8.55;;
6864;SDS011;3471;49.678;8.388;2023-02-22T05:05:47;14.77;;;9.33;;
6864;SDS011;3471;49.678;8.388;2023-02-22T05:08:12;9.43;;;8.15;;
6864;SDS011;3471;49.678;8.388;2023-02-22T05:10:38;8.17;;;7.37;;
6864;SDS011;3471;49.678;8.388;2023-02-22T05:13:03;11.02;;;9.98;;
6864;SDS011;3471;49.678;8.388;2023-02-22T05:15:30;11.90;;;10.52;;
6864;SDS011;3471;49.678;8.388;2023-02-22T05:17:55;10.02;;;8.63;;
6864;SDS011;3471;49.678;8.388;2023-02-22T05:20:39;13.03;;;9.30;;
6864;SDS011;3471;49.678;8.388;2023-02-22T05:23:05;13.20;;;10.10;;
6864;SDS011;3471;49.678;8.388;2023-02-22T05:25:30;11.63;;;8.67;;
6864;SDS011;3471;49.678;8.388;2023-02-22T05:27:58;10.18;;;8.70;;
6864;SDS011;3471;49.678;8.388;2023-02-22T05:30:27;10.18;;;9.15;;
6864;SDS011;3471;49.678;8.388;2023-02-22T05:32:54;11.27;;;9.40;;
6864;SDS011;3471;49.678;8.388;2023-02-22T05:35:20;10.77;;;9.57;;
6864;SDS011;3471;49.678;8.388;2023-02-22T05:37:48;18.27;;;8.70;;
6864;SDS011;3471;49.678;8.388;2023-02-22T05:40:15;10.13;;;9.02;;
6864;SDS011;3471;49.678;8.388;2023-02-22T05:42:47;9.80;;;8.32;;
6864;SDS011;3471;49.678;8.388;2023-02-22T05:45:13;12.45;;;9.57;;
6864;SDS011;3471;49.678;8.388;2023-02-22T05:47:41;9.45;;;8.65;;
6864;SDS011;3471;49.678;8.388;2023-02-22T05:50:06;12.53;;;10.13;;
6864;SDS011;3471;49.678;8.388;2023-02-22T05:52:33;11.23;;;8.77;;
6864;SDS011;3471;49.678;8.388;2023-02-22T05:54:58;11.13;;;8.67;;
6864;SDS011;3471;49.678;8.388;2023-02-22T05:57:24;9.27;;;7.93;;
6864;SDS011;3471;49.678;8.388;2023-02-22T05:59:49;8.80;;;8.07;;
6864;SDS011;3471;49.678;8.388;2023-02-22T06:02:15;8.87;;;8.00;;
6864;SDS011;3471;49.678;8.388;2023-02-22T06:04:44;10.15;;;9.13;;
6864;SDS011;3471;49.678;8.388;2023-02-22T06:07:10;12.57;;;9.00;;
6864;SDS011;3471;49.678;8.388;2023-02-22T06:09:37;13.43;;;10.25;;
6864;SDS011;3471;49.678;8.388;2023-02-22T06:12:03;12.25;;;9.48;;
6864;SDS011;3471;49.678;8.388;2023-02-22T06:14:28;12.02;;;9.30;;
6864;SDS011;3471;49.678;8.388;2023-02-22T06:16:54;10.83;;;9.33;;
6864;SDS011;3471;49.678;8.388;2023-02-22T06:19:21;11.30;;;9.95;;
6864;SDS011;3471;49.678;8.388;2023-02-22T06:21:50;11.30;;;9.07;;
6864;SDS011;3471;49.678;8.388;2023-02-22T06:24:17;12.52;;;11.32;;
6864;SDS011;3471;49.678;8.388;2023-02-22T06:26:42;10.70;;;9.13;;
6864;SDS011;3471;49.678;8.388;2023-02-22T06:29:08;10.50;;;9.45;;
6864;SDS011;3471;49.678;8.388;2023-02-22T06:31:34;9.03;;;8.03;;
6864;SDS011;3471;49.678;8.388;2023-02-22T06:34:00;14.20;;;9.27;;
6864;SDS011;3471;49.678;8.388;2023-02-22T06:36:26;9.52;;;7.35;;
6864;SDS011;3471;49.678;8.388;2023-02-22T06:38:51;7.97;;;7.13;;
6864;SDS011;3471;49.678;8.388;2023-02-22T06:41:17;14.00;;;8.10;;
6864;SDS011;3471;49.678;8.388;2023-02-22T06:43:42;8.60;;;7.60;;
6864;SDS011;3471;49.678;8.388;2023-02-22T06:46:11;11.10;;;8.13;;
6864;SDS011;3471;49.678;8.388;2023-02-22T06:48:37;8.77;;;8.07;;
6864;SDS011;3471;49.678;8.388;2023-02-22T06:51:04;11.20;;;10.00;;
6864;SDS011;3471;49.678;8.388;2023-02-22T06:53:32;9.95;;;8.95;;
6864;SDS011;3471;49.678;8.388;2023-02-22T06:55:58;15.43;;;8.90;;
6864;SDS011;3471;49.678;8.388;2023-02-22T06:58:24;11.83;;;8.13;;
6864;SDS011;3471;49.678;8.388;2023-02-22T07:00:51;12.48;;;9.07;;
6864;SDS011;3471;49.678;8.388;2023-02-22T07:03:16;9.38;;;8.15;;
6864;SDS011;3471;49.678;8.388;2023-02-22T07:05:44;12.35;;;11.07;;
6864;SDS011;3471;49.678;8.388;2023-02-22T07:08:10;10.88;;;9.80;;
6864;SDS011;3471;49.678;8.388;2023-02-22T07:10:36;13.98;;;9.73;;
6864;SDS011;3471;49.678;8.388;2023-02-22T07:13:03;10.18;;;8.60;;
6864;SDS011;3471;49.678;8.388;2023-02-22T07:15:31;10.38;;;9.32;;
6864;SDS011;3471;49.678;8.388;2023-02-22T07:17:58;11.35;;;7.90;;
6864;SDS011;3471;49.678;8.388;2023-02-22T07:20:25;16.60;;;10.57;;
6864;SDS011;3471;49.678;8.388;2023-02-22T07:22:52;11.32;;;9.10;;
6864;SDS011;3471;49.678;8.388;2023-02-22T07:25:18;17.23;;;11.73;;
6864;SDS011;3471;49.678;8.388;2023-02-22T07:27:45;11.40;;;10.15;;
6864;SDS011;3471;49.678;8.388;2023-02-22T07:30:18;10.95;;;9.20;;
6864;SDS011;3471;49.678;8.388;2023-02-22T07:32:49;10.65;;;8.52;;
6864;SDS011;3471;49.678;8.388;2023-02-22T07:35:18;12.30;;;9.40;;
6864;SDS011;3471;49.678;8.388;2023-02-22T07:37:45;11.10;;;9.43;;
6864;SDS011;3471;49.678;8.388;2023-02-22T07:40:12;13.80;;;11.70;;
6864;SDS011;3471;49.678;8.388;2023-02-22T07:45:23;12.10;;;9.93;;
6864;SDS011;3471;49.678;8.388;2023-02-22T07:47:51;11.45;;;10.35;;
6864;SDS011;3471;49.678;8.388;2023-02-22T07:50:18;12.57;;;10.90;;
6864;SDS011;3471;49.678;8.388;2023-02-22T07:52:47;11.77;;;9.33;;
6864;SDS011;3471;49.678;8.388;2023-02-22T07:55:18;15.07;;;11.30;;
6864;SDS011;3471;49.678;8.388;2023-02-22T07:57:45;13.38;;;9.60;;
6864;SDS011;3471;49.678;8.388;2023-02-22T08:00:13;11.52;;;10.32;;
6864;SDS011;3471;49.678;8.388;2023-02-22T08:02:41;10.02;;;8.90;;
6864;SDS011;3471;49.678;8.388;2023-02-22T08:05:07;10.98;;;9.52;;
6864;SDS011;3471;49.678;8.388;2023-02-22T08:07:34;12.15;;;9.05;;
6864;SDS011;3471;49.678;8.388;2023-02-22T08:10:01;14.20;;;11.07;;
6864;SDS011;3471;49.678;8.388;2023-02-22T08:12:30;20.20;;;12.15;;
6864;SDS011;3471;49.678;8.388;2023-02-22T08:14:56;14.38;;;10.40;;
6864;SDS011;3471;49.678;8.388;2023-02-22T08:17:22;20.05;;;10.52;;
6864;SDS011;3471;49.678;8.388;2023-02-22T08:19:47;12.80;;;10.85;;
6864;SDS011;3471;49.678;8.388;2023-02-22T08:22:13;16.60;;;12.47;;
6864;SDS011;3471;49.678;8.388;2023-02-22T08:24:38;11.20;;;10.10;;
6864;SDS011;3471;49.678;8.388;2023-02-22T08:27:05;12.90;;;9.70;;
6864;SDS011;3471;49.678;8.388;2023-02-22T08:29:30;12.52;;;10.68;;
6864;SDS011;3471;49.678;8.388;2023-02-22T08:31:58;18.52;;;10.95;;
6864;SDS011;3471;49.678;8.388;2023-02-22T08:34:24;17.63;;;11.27;;
6864;SDS011;3471;49.678;8.388;2023-02-22T08:36:50;20.38;;;12.65;;
6864;SDS011;3471;49.678;8.388;2023-02-22T08:39:15;22.40;;;13.20;;
6864;SDS011;3471;49.678;8.388;2023-02-22T08:41:41;32.50;;;14.17;;
6864;SDS011;3471;49.678;8.388;2023-02-22T08:44:06;22.98;;;13.45;;
6864;SDS011;3471;49.678;8.388;2023-02-22T08:46:32;24.63;;;12.30;;
6864;SDS011;3471;49.678;8.388;2023-02-22T08:48:57;28.00;;;13.57;;
6864;SDS011;3471;49.678;8.388;2023-02-22T08:51:23;21.50;;;13.80;;
6864;SDS011;3471;49.678;8.388;2023-02-22T08:53:54;21.08;;;14.77;;
6864;SDS011;3471;49.678;8.388;2023-02-22T08:56:19;21.45;;;15.18;;
6864;SDS011;3471;49.678;8.388;2023-02-22T08:58:47;21.80;;;16.40;;
6864;SDS011;3471;49.678;8.388;2023-02-22T09:01:12;28.33;;;14.55;;
6864;SDS011;3471;49.678;8.388;2023-02-22T09:03:38;25.80;;;14.80;;
6864;SDS011;3471;49.678;8.388;2023-02-22T09:06:03;25.30;;;14.87;;
6864;SDS011;3471;49.678;8.388;2023-02-22T09:08:31;20.77;;;15.38;;
6864;SDS011;3471;49.678;8.388;2023-02-22T09:10:57;16.63;;;14.37;;
6864;SDS011;3471;49.678;8.388;2023-02-22T09:13:23;19.25;;;14.82;;
6864;SDS011;3471;49.678;8.388;2023-02-22T09:15:48;28.10;;;15.27;;
6864;SDS011;3471;49.678;8.388;2023-02-22T09:18:14;24.57;;;15.20;;
6864;SDS011;3471;49.678;8.388;2023-02-22T09:20:41;23.42;;;13.18;;
6864;SDS011;3471;49.678;8.388;2023-02-22T09:23:08;22.00;;;15.03;;
6864;SDS011;3471;49.678;8.388;2023-02-22T09:25:34;23.05;;;15.30;;
6864;SDS011;3471;49.678;8.388;2023-02-22T09:28:00;24.25;;;16.20;;
6864;SDS011;3471;49.678;8.388;2023-02-22T09:30:33;20.35;;;16.35;;
6864;SDS011;3471;49.678;8.388;2023-02-22T09:33:00;25.35;;;15.35;;
6864;SDS011;3471;49.678;8.388;2023-02-22T09:35:29;17.02;;;13.70;;
6864;SDS011;3471;49.678;8.388;2023-02-22T09:37:55;20.88;;;15.27;;
6864;SDS011;3471;49.678;8.388;2023-02-22T09:40:22;21.98;;;16.55;;
6864;SDS011;3471;49.678;8.388;2023-02-22T09:43:36;20.92;;;14.15;;
6864;SDS011;3471;49.678;8.388;2023-02-22T09:48:26;23.85;;;16.13;;
6864;SDS011;3471;49.678;8.388;2023-02-22T09:50:56;16.60;;;13.63;;
6864;SDS011;3471;49.678;8.388;2023-02-22T09:53:29;22.88;;;15.85;;
6864;SDS011;3471;49.678;8.388;2023-02-22T09:56:07;16.90;;;14.15;;
6864;SDS011;3471;49.678;8.388;2023-02-22T09:58:39;16.95;;;12.30;;
6864;SDS011;3471;49.678;8.388;2023-02-22T10:06:25;16.63;;;14.57;;
6864;SDS011;3471;49.678;8.388;2023-02-22T10:08:51;27.37;;;16.33;;
6864;SDS011;3471;49.678;8.388;2023-02-22T10:16:54;17.58;;;15.35;;
6864;SDS011;3471;49.678;8.388;2023-02-22T10:22:12;23.37;;;14.90;;
6864;SDS011;3471;49.678;8.388;2023-02-22T10:27:17;18.08;;;14.20;;
6864;SDS011;3471;49.678;8.388;2023-02-22T10:29:47;17.88;;;12.60;;
6864;SDS011;3471;49.678;8.388;2023-02-22T10:32:25;19.52;;;14.25;;
6864;SDS011;3471;49.678;8.388;2023-02-22T10:34:55;21.80;;;16.23;;
6864;SDS011;3471;49.678;8.388;2023-02-22T10:37:30;18.40;;;15.02;;
6864;SDS011;3471;49.678;8.388;2023-02-22T10:40:02;20.25;;;14.43;;
6864;SDS011;3471;49.678;8.388;2023-02-22T10:42:37;26.52;;;17.55;;
6864;SDS011;3471;49.678;8.388;2023-02-22T10:45:03;27.00;;;17.42;;
6864;SDS011;3471;49.678;8.388;2023-02-22T10:47:30;19.60;;;14.05;;
6864;SDS011;3471;49.678;8.388;2023-02-22T10:49:57;17.75;;;13.15;;
6864;SDS011;3471;49.678;8.388;2023-02-22T10:52:25;22.70;;;14.03;;
6864;SDS011;3471;49.678;8.388;2023-02-22T10:54:58;17.58;;;11.40;;
6864;SDS011;3471;49.678;8.388;2023-02-22T10:57:26;16.67;;;14.10;;
6864;SDS011;3471;49.678;8.388;2023-02-22T10:59:57;18.80;;;13.27;;
6864;SDS011;3471;49.678;8.388;2023-02-22T11:05:42;15.65;;;12.40;;
6864;SDS011;3471;49.678;8.388;2023-02-22T11:08:12;15.98;;;13.82;;
6864;SDS011;3471;49.678;8.388;2023-02-22T11:10:59;14.60;;;13.10;;
6864;SDS011;3471;49.678;8.388;2023-02-22T11:19:21;22.13;;;12.93;;
6864;SDS011;3471;49.678;8.388;2023-02-22T11:21:50;14.85;;;12.35;;
6864;SDS011;3471;49.678;8.388;2023-02-22T11:24:18;19.02;;;13.13;;
6864;SDS011;3471;49.678;8.388;2023-02-22T11:26:49;17.80;;;13.07;;
6864;SDS011;3471;49.678;8.388;2023-02-22T11:29:18;17.30;;;11.43;;
6864;SDS011;3471;49.678;8.388;2023-02-22T11:31:49;14.45;;;12.95;;
6864;SDS011;3471;49.678;8.388;2023-02-22T11:34:34;16.05;;;13.20;;
6864;SDS011;3471;49.678;8.388;2023-02-22T11:39:46;14.38;;;12.65;;
6864;SDS011;3471;49.678;8.388;2023-02-22T11:42:22;17.85;;;11.82;;
6864;SDS011;3471;49.678;8.388;2023-02-22T11:45:06;15.25;;;12.93;;
6864;SDS011;3471;49.678;8.388;2023-02-22T11:47:33;20.80;;;11.45;;
6864;SDS011;3471;49.678;8.388;2023-02-22T11:50:00;18.30;;;12.73;;
6864;SDS011;3471;49.678;8.388;2023-02-22T11:52:28;20.05;;;12.20;;
6864;SDS011;3471;49.678;8.388;2023-02-22T11:55:20;18.90;;;11.30;;
6864;SDS011;3471;49.678;8.388;2023-02-22T12:08:49;23.30;;;13.13;;
6864;SDS011;3471;49.678;8.388;2023-02-22T12:14:40;32.60;;;14.15;;
6864;SDS011;3471;49.678;8.388;2023-02-22T12:17:30;14.10;;;10.70;;
6864;SDS011;3471;49.678;8.388;2023-02-22T12:25:58;15.65;;;12.32;;
6864;SDS011;3471;49.678;8.388;2023-02-22T12:31:41;21.38;;;12.88;;
6864;SDS011;3471;49.678;8.388;2023-02-22T12:36:31;16.45;;;12.27;;
6864;SDS011;3471;49.678;8.388;2023-02-22T12:39:11;15.50;;;11.50;;
6864;SDS011;3471;49.678;8.388;2023-02-22T12:41:53;18.65;;;11.85;;
6864;SDS011;3471;49.678;8.388;2023-02-22T12:44:24;13.47;;;12.07;;
6864;SDS011;3471;49.678;8.388;2023-02-22T12:46:56;15.80;;;14.07;;
6864;SDS011;3471;49.678;8.388;2023-02-22T12:49:33;19.05;;;11.13;;
6864;SDS011;3471;49.678;8.388;2023-02-22T12:52:12;20.33;;;13.07;;
6864;SDS011;3471;49.678;8.388;2023-02-22T13:02:57;26.40;;;11.48;;
6864;SDS011;3471;49.678;8.388;2023-02-22T13:05:50;11.73;;;9.75;;
6864;SDS011;3471;49.678;8.388;2023-02-22T13:08:32;18.42;;;12.05;;
6864;SDS011;3471;49.678;8.388;2023-02-22T13:16:49;14.93;;;13.32;;
6864;SDS011;3471;49.678;8.388;2023-02-22T13:19:33;20.75;;;12.52;;
6864;SDS011;3471;49.678;8.388;2023-02-22T13:24:58;14.05;;;10.13;;
6864;SDS011;3471;49.678;8.388;2023-02-22T13:30:35;13.27;;;11.40;;
6864;SDS011;3471;49.678;8.388;2023-02-22T13:52:54;16.17;;;12.00;;
6864;SDS011;3471;49.678;8.388;2023-02-22T13:55:25;18.88;;;12.48;;
6864;SDS011;3471;49.678;8.388;2023-02-22T13:58:01;12.77;;;11.48;;
6864;SDS011;3471;49.678;8.388;2023-02-22T14:00:51;20.43;;;11.37;;
6864;SDS011;3471;49.678;8.388;2023-02-22T14:06:00;23.00;;;11.43;;
6864;SDS011;3471;49.678;8.388;2023-02-22T14:10:56;16.08;;;11.02;;
6864;SDS011;3471;49.678;8.388;2023-02-22T14:13:23;16.67;;;10.75;;
6864;SDS011;3471;49.678;8.388;2023-02-22T14:18:24;17.45;;;9.90;;
6864;SDS011;3471;49.678;8.388;2023-02-22T14:21:04;15.30;;;10.82;;
6864;SDS011;3471;49.678;8.388;2023-02-22T14:23:41;20.87;;;10.50;;
6864;SDS011;3471;49.678;8.388;2023-02-22T14:32:16;10.93;;;9.43;;
6864;SDS011;3471;49.678;8.388;2023-02-22T14:34:37;11.38;;;10.10;;
6864;SDS011;3471;49.678;8.388;2023-02-22T14:37:08;16.50;;;9.38;;
6864;SDS011;3471;49.678;8.388;2023-02-22T14:42:09;11.20;;;10.00;;
6864;SDS011;3471;49.678;8.388;2023-02-22T14:47:43;14.40;;;10.23;;
6864;SDS011;3471;49.678;8.388;2023-02-22T14:50:32;10.05;;;8.98;;
6864;SDS011;3471;49.678;8.388;2023-02-22T14:55:46;12.35;;;8.32;;
6864;SDS011;3471;49.678;8.388;2023-02-22T14:58:22;15.43;;;10.02;;
6864;SDS011;3471;49.678;8.388;2023-02-22T15:00:53;13.70;;;9.15;;
6864;SDS011;3471;49.678;8.388;2023-02-22T15:05:46;12.40;;;10.53;;
6864;SDS011;3471;49.678;8.388;2023-02-22T15:08:14;13.60;;;9.23;;
6864;SDS011;3471;49.678;8.388;2023-02-22T15:10:46;14.00;;;10.90;;
6864;SDS011;3471;49.678;8.388;2023-02-22T15:13:17;14.38;;;11.00;;
6864;SDS011;3471;49.678;8.388;2023-02-22T15:15:45;15.70;;;10.13;;
6864;SDS011;3471;49.678;8.388;2023-02-22T15:18:26;15.40;;;8.43;;
6864;SDS011;3471;49.678;8.388;2023-02-22T15:21:03;16.52;;;9.30;;
6864;SDS011;3471;49.678;8.388;2023-02-22T15:23:39;12.35;;;9.93;;
6864;SDS011;3471;49.678;8.388;2023-02-22T15:28:55;9.60;;;8.52;;
6864;SDS011;3471;49.678;8.388;2023-02-22T15:33:51;11.38;;;9.25;;
6864;SDS011;3471;49.678;8.388;2023-02-22T15:36:17;14.02;;;10.15;;
6864;SDS011;3471;49.678;8.388;2023-02-22T15:38:48;16.95;;;11.80;;
6864;SDS011;3471;49.678;8.388;2023-02-22T15:41:23;20.50;;;9.60;;
6864;SDS011;3471;49.678;8.388;2023-02-22T15:44:00;16.05;;;11.63;;
6864;SDS011;3471;49.678;8.388;2023-02-22T15:46:26;16.65;;;10.65;;
6864;SDS011;3471;49.678;8.388;2023-02-22T15:51:30;28.27;;;11.10;;
6864;SDS011;3471;49.678;8.388;2023-02-22T15:53:59;14.63;;;10.20;;
6864;SDS011;3471;49.678;8.388;2023-02-22T15:56:27;16.77;;;10.20;;
6864;SDS011;3471;49.678;8.388;2023-02-22T15:59:07;18.00;;;10.10;;
6864;SDS011;3471;49.678;8.388;2023-02-22T16:01:37;16.80;;;11.00;;
6864;SDS011;3471;49.678;8.388;2023-02-22T16:04:06;12.63;;;9.07;;
6864;SDS011;3471;49.678;8.388;2023-02-22T16:06:39;9.50;;;8.50;;
6864;SDS011;3471;49.678;8.388;2023-02-22T16:11:34;17.33;;;8.95;;
6864;SDS011;3471;49.678;8.388;2023-02-22T16:14:05;9.07;;;6.30;;
6864;SDS011;3471;49.678;8.388;2023-02-22T16:16:48;14.75;;;9.27;;
6864;SDS011;3471;49.678;8.388;2023-02-22T16:32:42;20.55;;;9.70;;
6864;SDS011;3471;49.678;8.388;2023-02-22T16:35:08;17.52;;;8.45;;
6864;SDS011;3471;49.678;8.388;2023-02-22T16:37:53;20.95;;;10.18;;
6864;SDS011;3471;49.678;8.388;2023-02-22T16:42:48;18.67;;;8.35;;
6864;SDS011;3471;49.678;8.388;2023-02-22T16:45:16;15.85;;;10.38;;
6864;SDS011;3471;49.678;8.388;2023-02-22T16:47:42;17.15;;;8.63;;
6864;SDS011;3471;49.678;8.388;2023-02-22T16:50:07;16.63;;;8.82;;
6864;SDS011;3471;49.678;8.388;2023-02-22T16:52:33;9.98;;;8.38;;
6864;SDS011;3471;49.678;8.388;2023-02-22T16:55:02;13.88;;;10.25;;
6864;SDS011;3471;49.678;8.388;2023-02-22T16:57:27;20.27;;;8.23;;
6864;SDS011;3471;49.678;8.388;2023-02-22T16:59:55;12.05;;;9.45;;
6864;SDS011;3471;49.678;8.388;2023-02-22T17:02:21;17.07;;;9.27;;
6864;SDS011;3471;49.678;8.388;2023-02-22T17:04:47;17.03;;;9.07;;
6864;SDS011;3471;49.678;8.388;2023-02-22T17:07:17;18.17;;;9.55;;
6864;SDS011;3471;49.678;8.388;2023-02-22T17:09:44;22.83;;;9.43;;
6864;SDS011;3471;49.678;8.388;2023-02-22T17:12:10;14.57;;;8.80;;
6864;SDS011;3471;49.678;8.388;2023-02-22T17:14:36;14.20;;;8.57;;
6864;SDS011;3471;49.678;8.388;2023-02-22T17:17:04;14.05;;;8.52;;
6864;SDS011;3471;49.678;8.388;2023-02-22T17:19:31;11.73;;;8.13;;
6864;SDS011;3471;49.678;8.388;2023-02-22T17:21:56;19.97;;;9.73;;
6864;SDS011;3471;49.678;8.388;2023-02-22T17:24:23;57.88;;;11.73;;
6864;SDS011;3471;49.678;8.388;2023-02-22T17:26:52;62.53;;;11.25;;
6864;SDS011;3471;49.678;8.388;2023-02-22T17:29:18;96.25;;;16.65;;
6864;SDS011;3471;49.678;8.388;2023-02-22T17:31:44;38.08;;;9.55;;
6864;SDS011;3471;49.678;8.388;2023-02-22T17:34:10;12.50;;;8.65;;
6864;SDS011;3471;49.678;8.388;2023-02-22T17:36:36;18.58;;;10.10;;
6864;SDS011;3471;49.678;8.388;2023-02-22T17:39:02;15.55;;;10.00;;
6864;SDS011;3471;49.678;8.388;2023-02-22T17:41:29;19.70;;;7.80;;
6864;SDS011;3471;49.678;8.388;2023-02-22T17:43:55;13.95;;;8.63;;
6864;SDS011;3471;49.678;8.388;2023-02-22T17:46:22;26.52;;;9.65;;
6864;SDS011;3471;49.678;8.388;2023-02-22T17:48:49;10.53;;;7.93;;
6864;SDS011;3471;49.678;8.388;2023-02-22T17:51:18;17.30;;;10.15;;
6864;SDS011;3471;49.678;8.388;2023-02-22T17:53:45;16.70;;;11.35;;
6864;SDS011;3471;49.678;8.388;2023-02-22T17:56:12;28.20;;;12.38;;
6864;SDS011;3471;49.678;8.388;2023-02-22T17:58:40;21.58;;;9.90;;
6864;SDS011;3471;49.678;8.388;2023-02-22T18:01:06;15.63;;;9.43;;
6864;SDS011;3471;49.678;8.388;2023-02-22T18:03:41;12.00;;;9.07;;
6864;SDS011;3471;49.678;8.388;2023-02-22T18:06:07;15.97;;;9.60;;